createdAt,value
2022-10-11T00:01:54.451Z,61.86
2022-10-11T00:04:56.670Z,61.85
2022-10-11T00:07:58.743Z,61.87
2022-10-11T00:11:05.524Z,61.85
2022-10-11T00:14:07.699Z,61.86
2022-10-11T00:17:09.861Z,61.84
2022-10-11T00:20:12.921Z,61.87
2022-10-11T00:23:15.243Z,61.89
2022-10-11T00:26:17.828Z,61.91
2022-10-11T00:29:20.108Z,61.92
2022-10-11T00:32:22.290Z,61.94
2022-10-11T00:35:24.656Z,61.96
2022-10-11T00:38:26.783Z,62.05
2022-10-11T00:41:28.801Z,62.00
2022-10-11T00:44:33.375Z,61.98
2022-10-11T00:47:35.388Z,61.95
2022-10-11T00:50:37.565Z,61.99
2022-10-11T00:53:39.811Z,62.04
2022-10-11T00:56:45.749Z,62.12
2022-10-11T00:59:51.145Z,62.16
2022-10-11T01:02:53.256Z,62.15
2022-10-11T01:05:56.710Z,62.12
2022-10-11T01:08:58.820Z,62.10
2022-10-11T01:12:04.365Z,62.08
2022-10-11T01:15:33.912Z,62.09
2022-10-11T01:18:49.020Z,62.12
2022-10-11T01:21:51.015Z,62.12
2022-10-11T01:24:55.507Z,62.16
2022-10-11T01:28:17.740Z,62.26
2022-10-11T01:31:24.003Z,62.39
2022-10-11T01:34:42.902Z,62.49
2022-10-11T01:37:48.990Z,62.50
2022-10-11T01:40:55.167Z,62.57
2022-10-11T01:44:01.480Z,62.61
2022-10-11T01:47:03.607Z,62.63
2022-10-11T01:50:07.974Z,62.71
2022-10-11T01:53:44.120Z,62.72
2022-10-11T01:57:25.401Z,62.70
2022-10-11T02:00:40.913Z,62.79
2022-10-11T02:03:48.720Z,62.87
2022-10-11T02:06:58.278Z,62.88
2022-10-11T02:10:15.136Z,62.88
2022-10-11T02:13:24.242Z,62.89
2022-10-11T02:16:37.563Z,62.97
2022-10-11T02:19:44.144Z,63.02
2022-10-11T02:22:49.743Z,63.15
2022-10-11T02:25:53.087Z,63.15
2022-10-11T02:28:58.073Z,63.18
2022-10-11T02:32:00.797Z,63.22
2022-10-11T02:35:03.561Z,63.20
2022-10-11T02:38:21.901Z,63.25
2022-10-11T02:41:31.002Z,63.25
2022-10-11T02:44:37.848Z,63.24
2022-10-11T02:47:41.355Z,63.31
2022-10-11T02:50:44.075Z,63.30
2022-10-11T02:53:46.595Z,63.34
2022-10-11T02:56:48.656Z,63.30
2022-10-11T02:59:50.876Z,63.29
2022-10-11T03:02:53.214Z,63.28
2022-10-11T03:06:03.163Z,63.31
2022-10-11T03:09:05.408Z,63.34
2022-10-11T03:12:07.528Z,63.36
2022-10-11T03:15:10.029Z,63.36
2022-10-11T03:18:12.446Z,63.36
2022-10-11T03:21:14.708Z,63.35
2022-10-11T03:24:16.836Z,63.40
2022-10-11T03:27:18.923Z,63.36
2022-10-11T03:30:20.928Z,63.38
2022-10-11T03:33:23.047Z,63.34
2022-10-11T03:36:25.074Z,63.37
2022-10-11T03:39:27.176Z,63.44
2022-10-11T03:42:29.806Z,63.34
2022-10-11T03:45:31.951Z,63.27
2022-10-11T03:48:34.313Z,63.34
2022-10-11T03:51:36.477Z,63.37
2022-10-11T03:54:38.621Z,63.35
2022-10-11T03:57:40.914Z,63.43
2022-10-11T04:00:42.941Z,63.44
2022-10-11T04:03:44.969Z,63.46
2022-10-11T04:06:46.980Z,63.40
2022-10-11T04:09:49.059Z,63.40
2022-10-11T04:12:51.199Z,63.34
2022-10-11T04:15:53.283Z,63.34
2022-10-11T04:18:55.367Z,63.31
2022-10-11T04:21:57.541Z,63.27
2022-10-11T04:25:00.105Z,63.28
2022-10-11T04:28:02.242Z,63.27
2022-10-11T04:31:05.173Z,63.25
2022-10-11T04:34:07.479Z,63.29
2022-10-11T04:37:09.564Z,63.24
2022-10-11T04:40:12.408Z,63.21
2022-10-11T04:43:16.689Z,63.21
2022-10-11T04:46:18.758Z,63.27
2022-10-11T04:49:20.984Z,63.26
2022-10-11T04:52:25.669Z,63.24
2022-10-11T04:55:29.109Z,63.22
2022-10-11T04:58:32.641Z,63.22
2022-10-11T05:01:35.227Z,63.19
2022-10-11T05:04:37.364Z,63.22
2022-10-11T05:07:39.386Z,63.26
2022-10-11T05:10:41.391Z,63.26
2022-10-11T05:13:45.026Z,63.22
2022-10-11T05:16:47.505Z,63.24
2022-10-11T05:19:49.745Z,63.24
2022-10-11T05:22:51.788Z,63.28
2022-10-11T05:25:53.997Z,63.26
2022-10-11T05:28:56.431Z,63.25
2022-10-11T05:31:58.635Z,63.27
2022-10-11T05:35:00.699Z,63.24
2022-10-11T05:38:02.849Z,63.06
2022-10-11T05:41:05.938Z,63.02
2022-10-11T05:44:08.866Z,62.98
2022-10-11T05:47:10.890Z,62.98
2022-10-11T05:50:12.940Z,62.98
2022-10-11T05:53:14.971Z,62.94
2022-10-11T05:56:22.611Z,62.95
2022-10-11T05:59:24.662Z,62.92
2022-10-11T06:02:26.774Z,63.01
2022-10-11T06:05:28.970Z,62.90
2022-10-11T06:08:31.230Z,62.91
2022-10-11T06:11:34.068Z,62.93
2022-10-11T06:14:36.259Z,63.02
2022-10-11T06:17:38.371Z,63.01
2022-10-11T06:20:40.447Z,63.14
2022-10-11T06:23:42.452Z,63.14
2022-10-11T06:26:44.487Z,63.19
2022-10-11T06:29:46.592Z,63.15
2022-10-11T06:32:48.791Z,63.18
2022-10-11T06:35:56.940Z,63.26
2022-10-11T06:39:01.317Z,63.35
2022-10-11T06:42:03.411Z,63.39
2022-10-11T06:45:06.023Z,63.31
2022-10-11T06:48:08.142Z,63.62
2022-10-11T06:51:12.057Z,63.62
2022-10-11T06:54:14.139Z,63.63
2022-10-11T06:57:16.236Z,63.60
2022-10-11T07:00:18.661Z,63.66
2022-10-11T07:03:20.681Z,63.65
2022-10-11T07:06:25.385Z,63.79
2022-10-11T07:09:27.424Z,64.22
2022-10-11T07:12:29.642Z,64.27
2022-10-11T07:15:31.737Z,64.46
2022-10-11T07:18:33.853Z,64.47
2022-10-11T07:21:36.363Z,64.56
2022-10-11T07:24:38.406Z,64.55
2022-10-11T07:27:40.462Z,64.60
2022-10-11T07:30:43.132Z,64.63
2022-10-11T07:33:45.659Z,64.61
2022-10-11T07:36:47.838Z,64.54
2022-10-11T07:39:50.038Z,64.67
2022-10-11T07:42:52.079Z,64.62
2022-10-11T07:45:55.431Z,64.47
2022-10-11T07:48:57.576Z,64.62
2022-10-11T07:51:59.636Z,64.60
2022-10-11T07:55:01.665Z,64.64
2022-10-11T07:58:03.674Z,64.53
2022-10-11T08:01:06.214Z,64.52
2022-10-11T08:04:08.316Z,64.44
2022-10-11T08:07:10.470Z,64.33
2022-10-11T08:10:12.612Z,64.33
2022-10-11T08:13:14.674Z,64.40
2022-10-11T08:16:17.130Z,64.38
2022-10-11T08:19:19.248Z,64.35
2022-10-11T08:22:21.455Z,64.21
2022-10-11T08:25:23.751Z,64.21
2022-10-11T08:28:25.911Z,64.37
2022-10-11T08:31:31.701Z,64.47
2022-10-11T08:34:33.746Z,64.59
2022-10-11T08:37:35.868Z,64.58
2022-10-11T08:40:38.061Z,64.52
2022-10-11T08:43:42.635Z,64.52
2022-10-11T08:46:56.894Z,64.42
2022-10-11T08:50:03.727Z,64.35
2022-10-11T08:53:26.687Z,64.26
2022-10-11T08:56:30.435Z,64.19
2022-10-11T08:59:49.629Z,64.17
2022-10-11T09:03:22.708Z,64.07
2022-10-11T09:06:36.365Z,64.05
2022-10-11T09:09:51.625Z,63.97
2022-10-11T09:13:34.467Z,63.98
2022-10-11T09:16:45.851Z,63.92
2022-10-11T09:20:14.788Z,63.86
2022-10-11T09:23:32.892Z,63.87
2022-10-11T09:26:45.760Z,63.85
2022-10-11T09:30:18.131Z,63.82
2022-10-11T09:33:27.730Z,63.82
2022-10-11T09:36:51.681Z,63.73
2022-10-11T09:40:20.027Z,63.62
2022-10-11T09:43:22.303Z,63.78
2022-10-11T09:46:34.822Z,63.69
2022-10-11T09:49:57.254Z,63.74
2022-10-11T09:53:04.728Z,63.58
2022-10-11T09:56:07.477Z,63.59
2022-10-11T09:59:20.107Z,63.60
2022-10-11T10:02:23.749Z,63.69
2022-10-11T10:05:28.138Z,63.62
2022-10-11T10:08:30.241Z,63.59
2022-10-11T10:11:37.028Z,63.56
2022-10-11T10:14:39.898Z,63.54
2022-10-11T10:17:52.823Z,63.53
2022-10-11T10:20:57.674Z,63.63
2022-10-11T10:24:04.077Z,63.50
2022-10-11T10:27:16.940Z,63.37
2022-10-11T10:30:20.669Z,63.34
2022-10-11T10:33:26.216Z,63.30
2022-10-11T10:36:35.224Z,63.34
2022-10-11T10:39:46.420Z,63.58
2022-10-11T10:42:49.714Z,63.61
2022-10-11T10:46:16.470Z,63.81
2022-10-11T10:49:48.837Z,63.93
2022-10-11T10:53:22.021Z,64.14
2022-10-11T10:56:37.300Z,64.43
2022-10-11T10:59:54.239Z,64.80
2022-10-11T11:03:06.349Z,65.17
2022-10-11T11:06:13.637Z,65.79
2022-10-11T11:09:41.670Z,65.97
2022-10-11T11:13:04.186Z,66.30
2022-10-11T11:16:14.384Z,66.81
2022-10-11T11:19:36.787Z,67.04
2022-10-11T11:23:01.203Z,67.20
2022-10-11T11:26:15.370Z,67.36
2022-10-11T11:29:44.819Z,67.48
2022-10-11T11:33:13.194Z,67.72
2022-10-11T11:36:22.603Z,67.86
2022-10-11T11:39:31.074Z,67.81
2022-10-11T11:42:52.215Z,67.59
2022-10-11T11:45:59.002Z,67.50
2022-10-11T11:49:10.792Z,67.55
2022-10-11T11:52:40.536Z,66.81
2022-10-11T11:55:57.981Z,66.33
2022-10-11T11:59:09.941Z,65.69
2022-10-11T12:02:34.983Z,65.30
2022-10-11T12:05:37.447Z,65.05
2022-10-11T12:08:41.941Z,64.61
2022-10-11T12:12:01.645Z,64.27
2022-10-11T12:15:10.340Z,63.45
2022-10-11T12:18:17.167Z,62.57
2022-10-11T12:21:37.264Z,62.08
2022-10-11T12:25:00.782Z,61.79
2022-10-11T12:28:37.643Z,61.79
2022-10-11T12:31:45.200Z,61.35
2022-10-11T12:34:48.150Z,61.39
2022-10-11T12:37:51.472Z,61.37
2022-10-11T12:40:57.145Z,61.60
2022-10-11T12:44:17.881Z,61.54
2022-10-11T12:47:43.614Z,61.54
2022-10-11T12:50:53.543Z,61.53
2022-10-11T12:54:29.110Z,61.43
2022-10-11T12:57:46.445Z,61.60
2022-10-11T13:00:51.829Z,61.84
2022-10-11T13:04:02.832Z,61.99
2022-10-11T13:07:12.670Z,61.93
2022-10-11T13:10:24.479Z,61.93
2022-10-11T13:13:34.351Z,61.71
2022-10-11T13:17:05.209Z,61.83
2022-10-11T13:20:28.729Z,62.08
2022-10-11T13:23:37.897Z,62.15
2022-10-11T13:26:41.183Z,62.37
2022-10-11T13:29:45.916Z,62.31
2022-10-11T13:32:48.300Z,62.38
2022-10-11T13:35:50.748Z,62.48
2022-10-11T13:38:58.886Z,62.63
2022-10-11T13:42:04.927Z,62.75
2022-10-11T13:45:13.867Z,62.82
2022-10-11T13:48:17.199Z,63.03
2022-10-11T13:51:32.613Z,63.16
2022-10-11T13:54:53.486Z,63.24
2022-10-11T13:57:57.427Z,63.26
2022-10-11T14:01:03.724Z,63.30
2022-10-11T14:04:09.363Z,63.39
2022-10-11T14:07:24.099Z,63.50
2022-10-11T14:10:26.732Z,63.36
2022-10-11T14:13:39.329Z,63.32
2022-10-11T14:16:41.345Z,63.40
2022-10-11T14:19:45.161Z,63.46
2022-10-11T14:22:49.863Z,63.17
2022-10-11T14:25:53.112Z,63.24
2022-10-11T14:29:00.450Z,63.35
2022-10-11T14:32:08.325Z,63.55
2022-10-11T14:35:23.398Z,63.69
2022-10-11T14:38:25.474Z,63.77
2022-10-11T14:41:28.978Z,63.75
2022-10-11T14:44:31.133Z,63.71
2022-10-11T14:47:33.155Z,63.82
2022-10-11T14:50:55.069Z,63.89
2022-10-11T14:53:57.095Z,63.85
2022-10-11T14:57:02.133Z,64.08
2022-10-11T15:00:22.363Z,63.93
2022-10-11T15:03:24.378Z,63.93
2022-10-11T15:06:30.384Z,63.73
2022-10-11T15:09:32.424Z,63.58
2022-10-11T15:12:34.481Z,63.50
2022-10-11T15:15:40.742Z,63.71
2022-10-11T15:18:43.899Z,63.76
2022-10-11T15:21:46.741Z,63.89
2022-10-11T15:24:51.638Z,63.91
2022-10-11T15:27:54.349Z,63.96
2022-10-11T15:30:57.302Z,63.98
2022-10-11T15:34:01.642Z,63.98
2022-10-11T15:37:03.667Z,63.86
2022-10-11T15:40:42.800Z,63.84
2022-10-11T15:43:46.567Z,63.79
2022-10-11T15:46:48.699Z,63.91
2022-10-11T15:49:50.811Z,64.11
2022-10-11T15:52:54.130Z,64.43
2022-10-11T15:55:59.281Z,64.67
2022-10-11T15:59:01.959Z,64.92
2022-10-11T16:02:04.076Z,65.09
2022-10-11T16:05:06.231Z,65.37
2022-10-11T16:08:09.319Z,65.62
2022-10-11T16:11:12.217Z,65.51
2022-10-11T16:14:14.280Z,65.69
2022-10-11T16:17:16.387Z,65.71
2022-10-11T16:20:22.210Z,65.82
2022-10-11T16:23:24.425Z,66.19
2022-10-11T16:26:26.479Z,66.13
2022-10-11T16:29:28.798Z,66.27
2022-10-11T16:32:39.124Z,66.40
2022-10-11T16:35:42.079Z,66.56
2022-10-11T16:38:44.108Z,66.66
2022-10-11T16:41:47.098Z,66.73
2022-10-11T16:44:49.344Z,66.75
2022-10-11T16:47:51.448Z,66.83
2022-10-11T16:50:53.453Z,66.78
2022-10-11T16:53:55.610Z,66.80
2022-10-11T16:56:58.919Z,66.77
2022-10-11T17:00:00.962Z,66.72
2022-10-11T17:03:02.998Z,66.65
2022-10-11T17:06:06.088Z,66.66
2022-10-11T17:09:08.511Z,66.54
2022-10-11T17:12:13.107Z,66.49
2022-10-11T17:15:15.165Z,66.43
2022-10-11T17:18:17.559Z,66.36
2022-10-11T17:21:21.393Z,66.28
2022-10-11T17:24:24.062Z,66.26
2022-10-11T17:27:26.107Z,66.18
2022-10-11T17:30:28.175Z,66.11
2022-10-11T17:33:31.219Z,66.09
2022-10-11T17:36:36.600Z,66.03
2022-10-11T17:39:38.790Z,65.96
2022-10-11T17:42:41.024Z,65.91
2022-10-11T17:45:43.310Z,65.87
2022-10-11T17:48:45.658Z,65.81
2022-10-11T17:51:48.017Z,65.78
2022-10-11T17:54:50.328Z,65.76
2022-10-11T17:57:52.464Z,65.70
2022-10-11T18:00:54.870Z,65.61
2022-10-11T18:04:14.061Z,65.59
2022-10-11T18:07:16.493Z,65.56
2022-10-11T18:10:18.879Z,65.58
2022-10-11T18:13:21.223Z,65.57
2022-10-11T18:16:28.948Z,65.50
2022-10-11T18:19:31.173Z,65.50
2022-10-11T18:22:33.253Z,65.46
2022-10-11T18:25:35.327Z,65.48
2022-10-11T18:28:37.716Z,65.49
2022-10-11T18:31:40.271Z,65.43
2022-10-11T18:34:42.647Z,65.43
2022-10-11T18:37:44.769Z,65.40
2022-10-11T18:40:47.350Z,65.33
2022-10-11T18:43:54.773Z,65.32
2022-10-11T18:46:57.620Z,65.30
2022-10-11T18:49:59.845Z,65.27
2022-10-11T18:53:02.435Z,65.21
2022-10-11T18:56:07.388Z,65.21
2022-10-11T18:59:10.809Z,65.14
2022-10-11T19:02:13.042Z,65.13
2022-10-11T19:05:15.378Z,65.11
2022-10-11T19:08:17.569Z,65.06
2022-10-11T19:11:25.312Z,65.04
2022-10-11T19:14:30.188Z,64.98
2022-10-11T19:17:32.315Z,64.98
2022-10-11T19:20:35.853Z,64.92
2022-10-11T19:23:41.328Z,64.95
2022-10-11T19:26:43.804Z,64.91
2022-10-11T19:29:45.979Z,64.87
2022-10-11T19:32:48.148Z,64.85
2022-10-11T19:35:57.177Z,64.81
2022-10-11T19:38:59.773Z,64.80
2022-10-11T19:42:01.938Z,64.79
2022-10-11T19:45:04.479Z,64.79
2022-10-11T19:48:07.136Z,64.75
2022-10-11T19:51:15.076Z,64.72
2022-10-11T19:54:17.610Z,64.68
2022-10-11T19:57:19.790Z,64.66
2022-10-11T20:00:22.024Z,64.66
2022-10-11T20:03:24.171Z,64.63
2022-10-11T20:06:27.941Z,64.59
2022-10-11T20:09:30.963Z,64.59
2022-10-11T20:12:34.285Z,64.56
2022-10-11T20:15:39.912Z,64.56
2022-10-11T20:18:43.048Z,64.53
2022-10-11T20:21:45.404Z,64.49
2022-10-11T20:24:47.617Z,64.49
2022-10-11T20:27:49.744Z,64.47
2022-10-11T20:30:51.940Z,64.50
2022-10-11T20:34:01.188Z,64.45
2022-10-11T20:37:03.362Z,64.44
2022-10-11T20:40:06.200Z,64.43
2022-10-11T20:43:08.368Z,64.42
2022-10-11T20:46:12.792Z,64.41
2022-10-11T20:49:14.956Z,64.39
2022-10-11T20:52:17.109Z,64.37
2022-10-11T20:55:19.200Z,64.38
2022-10-11T20:58:22.152Z,64.33
2022-10-11T21:01:27.244Z,64.30
2022-10-11T21:04:29.684Z,64.30
2022-10-11T21:07:31.992Z,64.27
2022-10-11T21:10:34.362Z,64.26
2022-10-11T21:13:36.651Z,64.22
2022-10-11T21:16:38.874Z,64.18
2022-10-11T21:19:40.929Z,64.21
2022-10-11T21:22:43.012Z,64.19
2022-10-11T21:25:45.054Z,64.14
2022-10-11T21:28:47.128Z,64.14
2022-10-11T21:31:51.934Z,64.06
2022-10-11T21:34:54.012Z,64.07
2022-10-11T21:37:57.000Z,64.05
2022-10-11T21:40:59.052Z,64.02
2022-10-11T21:44:01.173Z,64.01
2022-10-11T21:47:07.869Z,64.00
2022-10-11T21:50:10.289Z,63.95
2022-10-11T21:53:12.315Z,63.92
2022-10-11T21:56:14.384Z,63.93
2022-10-11T21:59:16.512Z,63.95
2022-10-11T22:02:18.552Z,63.90
2022-10-11T22:05:20.627Z,63.91
2022-10-11T22:08:22.778Z,63.93
2022-10-11T22:11:25.088Z,63.89
2022-10-11T22:14:27.497Z,63.89
2022-10-11T22:17:29.716Z,63.88
2022-10-11T22:20:33.409Z,63.84
2022-10-11T22:23:35.527Z,63.84
2022-10-11T22:26:37.760Z,63.82
2022-10-11T22:29:39.766Z,63.84
2022-10-11T22:32:41.910Z,63.79
2022-10-11T22:35:43.930Z,63.79
2022-10-11T22:38:46.570Z,63.75
2022-10-11T22:41:48.620Z,63.73
2022-10-11T22:44:50.948Z,63.73
2022-10-11T22:47:52.937Z,63.71
2022-10-11T22:50:55.278Z,63.70
2022-10-11T22:53:57.285Z,63.71
2022-10-11T22:56:59.275Z,63.69
2022-10-11T23:00:01.304Z,63.66
2022-10-11T23:03:03.725Z,63.66
2022-10-11T23:06:06.276Z,63.66
2022-10-11T23:09:08.400Z,63.63
2022-10-11T23:12:10.475Z,63.61
2022-10-11T23:15:13.099Z,63.62
2022-10-11T23:18:18.478Z,63.62
2022-10-11T23:21:20.713Z,63.61
2022-10-11T23:24:22.888Z,63.63
2022-10-11T23:27:24.958Z,63.58
2022-10-11T23:30:27.476Z,63.57
2022-10-11T23:33:29.548Z,63.58
2022-10-11T23:36:31.629Z,63.56
2022-10-11T23:39:33.864Z,63.58
2022-10-11T23:42:35.856Z,63.57
2022-10-11T23:45:37.900Z,63.58
2022-10-11T23:48:40.091Z,63.58
2022-10-11T23:51:42.170Z,63.56
2022-10-11T23:54:45.452Z,63.56
2022-10-11T23:57:47.529Z,63.55
